Little River Academy, Texas
Current Conditions -  °F | °C
As of 9:35 AM on Thursday 30 Oct 2014 (Local Time) from KTPL Reporting Station
Broken Clouds Broken Clouds  
Wind Chill: 63°   Ceiling: 4800
Heat Index: 63°   Visibility: 10mi
Dew Point: 52°   Wind: 5mph
Humidity: 68%   Direction: 130°SE
Pressure: 30.17"   Gusts: NA
Location:  30.9809°N, 97.3415°W
Report Text: KTPL 301435Z AUTO 13004KT 10SM BKN048 BKN050 17/11 A3017 RMK AO1
Loading
Personal Weather Stations






























Interactive Weather Map
Tropical Storm Tracking
New forecast layout! Learn more

10-Day Weather Forecast

Advertisements
Track Severe Weather on mobile